createdAt,value
2023-04-06T00:00:24.463Z,6.95
2023-04-06T00:01:57.679Z,6.40
2023-04-06T00:03:31.247Z,6.85
2023-04-06T00:05:05.253Z,6.13
2023-04-06T00:06:39.794Z,7.85
2023-04-06T00:08:13.042Z,9.05
2023-04-06T00:09:45.766Z,7.53
2023-04-06T00:11:19.083Z,7.15
2023-04-06T00:12:51.321Z,9.82
2023-04-06T00:14:24.507Z,7.35
2023-04-06T00:15:57.826Z,6.57
2023-04-06T00:17:31.306Z,6.35
2023-04-06T00:19:04.669Z,7.53
2023-04-06T00:20:37.996Z,8.80
2023-04-06T00:22:11.826Z,7.93
2023-04-06T00:23:45.116Z,7.60
2023-04-06T00:25:17.570Z,8.65
2023-04-06T00:26:50.720Z,7.95
2023-04-06T00:28:26.623Z,6.95
2023-04-06T00:29:59.889Z,7.32
2023-04-06T00:31:32.194Z,8.93
2023-04-06T00:33:05.817Z,6.38
2023-04-06T00:34:39.080Z,8.27
2023-04-06T00:36:11.471Z,8.35
2023-04-06T00:37:48.916Z,6.25
2023-04-06T00:39:21.363Z,7.43
2023-04-06T00:40:54.723Z,9.07
2023-04-06T00:42:27.145Z,5.75
2023-04-06T00:44:00.581Z,7.68
2023-04-06T00:45:34.448Z,7.57
2023-04-06T00:47:06.898Z,8.13
2023-04-06T00:48:41.662Z,6.75
2023-04-06T00:50:14.977Z,7.88
2023-04-06T00:51:48.169Z,6.35
2023-04-06T00:53:22.808Z,6.78
2023-04-06T00:54:56.617Z,6.07
2023-04-06T00:56:29.109Z,7.45
2023-04-06T00:58:02.580Z,6.60
2023-04-06T00:59:41.263Z,5.95
2023-04-06T01:01:25.832Z,6.85
2023-04-06T01:03:00.750Z,5.63
2023-04-06T01:04:41.876Z,5.28
2023-04-06T01:06:19.770Z,6.05
2023-04-06T01:08:02.242Z,7.35
2023-04-06T01:09:37.601Z,7.93
2023-04-06T01:11:15.895Z,5.55
2023-04-06T01:12:49.146Z,5.72
2023-04-06T01:14:29.476Z,6.43
2023-04-06T01:16:07.657Z,6.63
2023-04-06T01:17:56.852Z,5.80
2023-04-06T01:19:29.626Z,5.93
2023-04-06T01:21:03.529Z,6.80
2023-04-06T01:22:38.317Z,7.13
2023-04-06T01:24:12.334Z,6.85
2023-04-06T01:26:06.208Z,6.55
2023-04-06T01:27:39.521Z,6.63
2023-04-06T01:29:18.652Z,8.05
2023-04-06T01:30:51.920Z,7.03
2023-04-06T01:32:43.781Z,5.38
2023-04-06T01:34:22.290Z,8.52
2023-04-06T01:35:54.729Z,5.55
2023-04-06T01:37:28.156Z,8.07
2023-04-06T01:39:05.442Z,8.25
2023-04-06T01:40:41.613Z,6.53
2023-04-06T01:42:15.891Z,6.25
2023-04-06T01:43:49.661Z,6.68
2023-04-06T01:45:23.362Z,7.32
2023-04-06T01:46:58.569Z,6.22
2023-04-06T01:48:31.052Z,6.68
2023-04-06T01:50:07.074Z,5.75
2023-04-06T01:51:44.316Z,7.32
2023-04-06T01:53:18.809Z,7.60
2023-04-06T01:54:54.464Z,6.90
2023-04-06T01:56:40.840Z,6.75
2023-04-06T01:58:40.408Z,6.25
2023-04-06T02:00:15.608Z,6.10
2023-04-06T02:01:53.255Z,6.55
2023-04-06T02:03:26.109Z,6.32
2023-04-06T02:06:44.024Z,7.35
2023-04-06T02:08:19.298Z,5.70
2023-04-06T02:09:56.452Z,6.13
2023-04-06T02:11:36.347Z,9.18
2023-04-06T02:13:08.824Z,7.72
2023-04-06T02:14:43.001Z,6.05
2023-04-06T02:16:16.819Z,8.07
2023-04-06T02:17:51.758Z,5.45
2023-04-06T02:19:24.979Z,6.18
2023-04-06T02:20:58.223Z,6.43
2023-04-06T02:22:31.390Z,6.10
2023-04-06T02:24:04.786Z,6.53
2023-04-06T02:25:39.425Z,6.00
2023-04-06T02:27:12.157Z,6.40
2023-04-06T02:28:45.450Z,5.80
2023-04-06T02:30:17.663Z,6.85
2023-04-06T02:31:51.387Z,7.07
2023-04-06T02:33:24.848Z,6.80
2023-04-06T02:34:58.190Z,7.05
2023-04-06T02:36:32.325Z,6.38
2023-04-06T02:38:05.980Z,6.43
2023-04-06T02:39:38.262Z,6.22
2023-04-06T02:41:16.125Z,6.45
2023-04-06T02:42:49.471Z,5.90
2023-04-06T02:44:26.216Z,5.95
2023-04-06T02:45:59.507Z,6.25
2023-04-06T02:47:33.146Z,8.88
2023-04-06T02:49:06.770Z,5.40
2023-04-06T02:50:41.518Z,5.70
2023-04-06T02:52:15.364Z,6.95
2023-04-06T02:53:47.784Z,5.97
2023-04-06T02:55:22.476Z,5.45
2023-04-06T02:56:57.708Z,5.32
2023-04-06T02:58:39.023Z,5.38
2023-04-06T03:00:14.120Z,6.00
2023-04-06T03:01:48.738Z,5.70
2023-04-06T03:03:22.266Z,5.15
2023-04-06T03:04:56.352Z,7.22
2023-04-06T03:06:34.842Z,4.78
2023-04-06T03:08:17.627Z,6.95
2023-04-06T03:09:51.704Z,6.72
2023-04-06T03:11:25.083Z,7.13
2023-04-06T03:13:00.938Z,5.82
2023-04-06T03:14:49.096Z,8.35
2023-04-06T03:16:23.002Z,4.80
2023-04-06T03:18:00.108Z,6.32
2023-04-06T03:19:41.684Z,5.95
2023-04-06T03:21:17.076Z,5.43
2023-04-06T03:22:54.746Z,4.68
2023-04-06T03:24:32.265Z,5.03
2023-04-06T03:26:05.910Z,4.65
2023-04-06T03:27:38.309Z,4.88
2023-04-06T03:29:14.798Z,5.05
2023-04-06T03:30:48.289Z,5.75
2023-04-06T03:32:24.115Z,5.97
2023-04-06T03:33:58.155Z,5.38
2023-04-06T03:35:42.435Z,6.00
2023-04-06T03:37:15.921Z,4.70
2023-04-06T03:38:55.197Z,5.85
2023-04-06T03:40:28.496Z,4.97
2023-04-06T03:42:01.658Z,5.80
2023-04-06T03:43:49.999Z,5.50
2023-04-06T03:45:25.904Z,5.32
2023-04-06T03:46:58.237Z,6.25
2023-04-06T03:48:32.469Z,5.85
2023-04-06T03:50:10.660Z,5.97
2023-04-06T03:51:42.910Z,5.32
2023-04-06T03:53:16.378Z,4.47
2023-04-06T03:54:48.850Z,5.75
2023-04-06T03:56:22.212Z,5.75
2023-04-06T03:57:55.414Z,5.60
2023-04-06T03:59:28.756Z,6.10
2023-04-06T04:01:02.408Z,5.18
2023-04-06T04:02:35.775Z,5.22
2023-04-06T04:04:09.118Z,4.82
2023-04-06T04:05:42.321Z,5.53
2023-04-06T04:07:15.230Z,6.03
2023-04-06T04:08:48.447Z,5.15
2023-04-06T04:10:20.674Z,5.95
2023-04-06T04:11:53.849Z,5.78
2023-04-06T04:13:28.311Z,4.80
2023-04-06T04:15:01.680Z,5.63
2023-04-06T04:16:36.323Z,5.13
2023-04-06T04:18:09.718Z,5.53
2023-04-06T04:19:42.950Z,6.63
2023-04-06T04:21:16.597Z,5.88
2023-04-06T04:22:49.868Z,6.20
2023-04-06T04:24:23.314Z,4.97
2023-04-06T04:25:56.900Z,5.30
2023-04-06T04:27:30.181Z,4.43
2023-04-06T04:29:02.626Z,7.30
2023-04-06T04:30:36.115Z,5.30
2023-04-06T04:32:15.821Z,5.97
2023-04-06T04:33:49.273Z,6.25
2023-04-06T04:35:29.033Z,5.60
2023-04-06T04:37:02.627Z,4.78
2023-04-06T04:38:56.144Z,4.75
2023-04-06T04:40:30.111Z,4.88
2023-04-06T04:42:11.707Z,5.07
2023-04-06T04:43:50.689Z,4.70
2023-04-06T04:45:28.580Z,4.60
2023-04-06T04:47:02.624Z,5.40
2023-04-06T04:48:47.529Z,6.63
2023-04-06T04:50:20.999Z,4.75
2023-04-06T04:51:57.603Z,6.60
2023-04-06T04:53:37.998Z,5.97
2023-04-06T04:55:22.621Z,5.00
2023-04-06T04:56:59.959Z,4.68
2023-04-06T04:58:44.581Z,5.10
2023-04-06T05:00:19.346Z,5.30
2023-04-06T05:01:55.587Z,3.80
2023-04-06T05:03:40.685Z,5.15
2023-04-06T05:05:19.579Z,5.20
2023-04-06T05:06:52.839Z,5.47
2023-04-06T05:08:26.646Z,6.00
2023-04-06T05:09:58.993Z,5.30
2023-04-06T05:11:36.237Z,5.78
2023-04-06T05:13:10.495Z,4.38
2023-04-06T05:14:43.967Z,5.35
2023-04-06T05:16:20.587Z,5.45
2023-04-06T05:17:54.229Z,5.15
2023-04-06T05:19:32.563Z,4.88
2023-04-06T05:21:07.494Z,4.50
2023-04-06T05:23:04.047Z,5.97
2023-04-06T05:24:37.723Z,6.05
2023-04-06T05:26:13.584Z,4.63
2023-04-06T05:27:46.870Z,6.93
2023-04-06T05:29:33.087Z,5.28
2023-04-06T05:31:06.599Z,4.72
2023-04-06T05:32:49.679Z,5.95
2023-04-06T05:34:23.856Z,5.75
2023-04-06T05:35:58.018Z,4.25
2023-04-06T05:37:32.802Z,4.35
2023-04-06T05:39:07.029Z,5.03
2023-04-06T05:40:45.460Z,5.18
2023-04-06T05:42:22.152Z,5.75
2023-04-06T05:43:58.665Z,5.35
2023-04-06T05:45:32.771Z,4.75
2023-04-06T05:47:06.374Z,4.75
2023-04-06T05:48:39.745Z,5.38
2023-04-06T05:50:13.847Z,5.03
2023-04-06T05:51:47.644Z,4.65
2023-04-06T05:53:22.936Z,4.50
2023-04-06T05:55:01.676Z,5.95
2023-04-06T05:56:35.583Z,5.55
2023-04-06T05:58:09.777Z,6.15
2023-04-06T05:59:42.036Z,5.78
2023-04-06T06:01:16.720Z,5.15
2023-04-06T06:02:53.072Z,5.32
2023-04-06T06:04:30.664Z,6.57
2023-04-06T06:06:05.650Z,4.38
2023-04-06T06:07:52.096Z,5.30
2023-04-06T06:09:27.015Z,6.55
2023-04-06T06:11:15.528Z,6.20
2023-04-06T06:12:49.083Z,4.78
2023-04-06T06:14:23.725Z,7.50
2023-04-06T06:15:56.948Z,5.13
2023-04-06T06:17:30.626Z,6.15
2023-04-06T06:19:04.113Z,6.25
2023-04-06T06:20:38.310Z,7.38
2023-04-06T06:22:12.630Z,3.95
2023-04-06T06:23:50.338Z,5.25
2023-04-06T06:25:27.921Z,5.53
2023-04-06T06:27:01.249Z,5.82
2023-04-06T06:28:37.092Z,5.97
2023-04-06T06:30:11.654Z,5.32
2023-04-06T06:31:47.748Z,4.57
2023-04-06T06:33:21.100Z,6.05
2023-04-06T06:34:56.528Z,5.00
2023-04-06T06:36:31.557Z,6.15
2023-04-06T06:38:07.793Z,4.05
2023-04-06T06:39:41.093Z,4.45
2023-04-06T06:41:15.877Z,5.45
2023-04-06T06:42:49.252Z,4.88
2023-04-06T06:44:29.018Z,4.13
2023-04-06T06:46:02.802Z,6.18
2023-04-06T06:47:36.342Z,5.13
2023-04-06T06:49:09.595Z,5.15
2023-04-06T06:50:42.875Z,6.90
2023-04-06T06:52:16.171Z,6.78
2023-04-06T06:53:50.727Z,4.65
2023-04-06T06:55:24.060Z,5.40
2023-04-06T06:56:58.592Z,5.20
2023-04-06T06:58:31.941Z,4.95
2023-04-06T07:00:09.418Z,5.68
2023-04-06T07:01:43.998Z,4.15
2023-04-06T07:03:17.417Z,4.35
2023-04-06T07:04:50.744Z,4.57
2023-04-06T07:06:24.369Z,6.00
2023-04-06T07:07:58.586Z,4.82
2023-04-06T07:09:33.187Z,5.22
2023-04-06T07:11:06.791Z,5.53
2023-04-06T07:12:41.381Z,4.88
2023-04-06T07:14:15.498Z,4.88
2023-04-06T07:15:48.716Z,5.35
2023-04-06T07:17:22.116Z,6.68
2023-04-06T07:18:55.412Z,4.65
2023-04-06T07:20:30.062Z,5.45
2023-04-06T07:22:04.246Z,4.13
2023-04-06T07:23:37.793Z,5.25
2023-04-06T07:25:11.677Z,5.22
2023-04-06T07:26:44.934Z,5.68
2023-04-06T07:28:19.978Z,5.28
2023-04-06T07:29:53.260Z,5.75
2023-04-06T07:31:27.239Z,4.43
2023-04-06T07:33:01.333Z,5.82
2023-04-06T07:34:35.333Z,5.35
2023-04-06T07:36:08.685Z,6.05
2023-04-06T07:37:42.095Z,5.30
2023-04-06T07:39:15.650Z,6.57
2023-04-06T07:40:49.147Z,4.53
2023-04-06T07:42:29.800Z,4.80
2023-04-06T07:44:05.105Z,5.68
2023-04-06T07:45:38.587Z,6.25
2023-04-06T07:48:46.729Z,4.80
2023-04-06T07:50:20.246Z,4.20
2023-04-06T07:51:54.208Z,5.00
2023-04-06T07:53:27.570Z,5.82
2023-04-06T07:55:00.950Z,4.88
2023-04-06T07:56:34.272Z,7.40
2023-04-06T07:58:07.628Z,5.50
2023-04-06T07:59:42.157Z,4.57
2023-04-06T08:01:15.542Z,5.65
2023-04-06T08:02:48.994Z,4.90
2023-04-06T08:04:22.792Z,4.35
2023-04-06T08:05:56.237Z,4.32
2023-04-06T08:07:29.589Z,4.68
2023-04-06T08:09:02.774Z,4.53
2023-04-06T08:10:36.391Z,5.00
2023-04-06T08:12:09.616Z,4.82
2023-04-06T08:13:42.838Z,5.93
2023-04-06T08:15:19.046Z,6.22
2023-04-06T08:16:52.486Z,5.57
2023-04-06T08:18:25.669Z,6.50
2023-04-06T08:19:58.946Z,5.82
2023-04-06T08:21:32.151Z,6.28
2023-04-06T08:23:05.374Z,6.03
2023-04-06T08:24:38.630Z,8.57
2023-04-06T08:26:12.031Z,7.75
2023-04-06T08:27:45.256Z,4.22
2023-04-06T08:29:18.839Z,6.40
2023-04-06T08:30:53.489Z,4.88
2023-04-06T08:32:28.280Z,8.38
2023-04-06T08:34:01.632Z,6.57
2023-04-06T08:35:35.334Z,7.45
2023-04-06T08:37:09.147Z,5.25
2023-04-06T08:38:43.857Z,5.97
2023-04-06T08:40:17.345Z,10.07
2023-04-06T08:41:52.812Z,5.97
2023-04-06T08:43:29.414Z,5.55
2023-04-06T08:45:03.270Z,5.97
2023-04-06T08:46:38.020Z,5.05
2023-04-06T08:48:13.617Z,6.13
2023-04-06T08:49:48.085Z,5.30
2023-04-06T08:51:22.244Z,6.50
2023-04-06T08:52:56.826Z,6.72
2023-04-06T08:54:30.018Z,6.40
2023-04-06T08:56:05.071Z,6.38
2023-04-06T08:57:38.720Z,5.60
2023-04-06T08:59:13.003Z,6.32
2023-04-06T09:00:46.527Z,5.90
2023-04-06T09:02:22.180Z,6.80
2023-04-06T09:03:59.451Z,6.72
2023-04-06T09:05:33.273Z,7.13
2023-04-06T09:07:07.518Z,6.35
2023-04-06T09:08:42.516Z,6.10
2023-04-06T09:10:16.754Z,6.85
2023-04-06T09:11:52.772Z,7.63
2023-04-06T09:13:26.065Z,7.55
2023-04-06T09:15:00.676Z,7.13
2023-04-06T09:16:42.568Z,6.90
2023-04-06T09:18:30.809Z,7.30
2023-04-06T09:20:05.687Z,7.13
2023-04-06T09:23:20.488Z,7.10
2023-04-06T09:24:55.547Z,8.63
2023-04-06T09:26:28.892Z,8.65
2023-04-06T09:28:04.769Z,9.45
2023-04-06T09:29:38.487Z,10.27
2023-04-06T09:31:11.963Z,8.55
2023-04-06T09:32:51.791Z,11.13
2023-04-06T09:34:26.413Z,9.85
2023-04-06T09:35:59.922Z,9.25
2023-04-06T09:37:33.176Z,10.52
2023-04-06T09:39:07.267Z,10.30
2023-04-06T09:41:00.885Z,9.63
2023-04-06T09:42:36.218Z,8.60
2023-04-06T09:44:11.117Z,10.75
2023-04-06T09:45:44.724Z,12.30
2023-04-06T09:47:19.919Z,11.40
2023-04-06T09:48:54.750Z,11.27
2023-04-06T09:50:29.886Z,10.50
2023-04-06T09:52:05.919Z,11.57
2023-04-06T09:53:43.814Z,11.70
2023-04-06T09:55:28.011Z,11.40
2023-04-06T09:57:14.873Z,11.60
2023-04-06T09:58:54.173Z,10.23
2023-04-06T10:00:30.617Z,11.27
2023-04-06T10:02:08.109Z,9.68
2023-04-06T10:03:54.277Z,10.23
2023-04-06T10:07:12.722Z,10.15
2023-04-06T10:08:51.580Z,9.30
2023-04-06T10:10:24.966Z,10.60
2023-04-06T10:12:00.217Z,10.23
2023-04-06T10:13:33.389Z,10.90
2023-04-06T10:15:07.802Z,10.80
2023-04-06T10:16:41.342Z,11.07
2023-04-06T10:18:16.034Z,10.98
2023-04-06T10:19:56.874Z,11.15
2023-04-06T10:21:34.133Z,11.35
2023-04-06T10:23:16.414Z,10.98
2023-04-06T10:24:49.648Z,12.75
2023-04-06T10:26:23.941Z,10.73
2023-04-06T10:28:02.615Z,11.30
2023-04-06T10:29:46.280Z,10.98
2023-04-06T10:31:28.104Z,12.30
2023-04-06T10:33:01.729Z,10.25
2023-04-06T10:34:37.350Z,10.80
2023-04-06T10:36:15.535Z,11.45
2023-04-06T10:37:54.510Z,11.50
2023-04-06T10:39:28.799Z,11.90
2023-04-06T10:41:07.349Z,12.07
2023-04-06T10:42:40.724Z,11.07
2023-04-06T10:44:22.326Z,10.50
2023-04-06T10:46:01.526Z,10.73
2023-04-06T10:47:42.061Z,11.15
2023-04-06T10:50:51.126Z,11.85
2023-04-06T10:52:25.746Z,10.30
2023-04-06T10:54:01.390Z,14.80
2023-04-06T10:55:36.629Z,11.13
2023-04-06T10:57:09.842Z,11.32
2023-04-06T10:58:47.642Z,11.05
2023-04-06T11:00:22.220Z,12.18
2023-04-06T11:01:56.714Z,10.32
2023-04-06T11:03:30.393Z,11.73
2023-04-06T11:05:03.462Z,12.85
2023-04-06T11:06:37.000Z,10.40
2023-04-06T11:08:10.166Z,11.48
2023-04-06T11:09:52.796Z,14.10
2023-04-06T11:11:33.846Z,12.23
2023-04-06T11:13:08.662Z,13.73
2023-04-06T11:16:18.004Z,12.10
2023-04-06T11:17:52.081Z,11.07
2023-04-06T11:19:25.492Z,13.10
2023-04-06T11:20:58.718Z,13.35
2023-04-06T11:22:33.201Z,11.98
2023-04-06T11:24:11.766Z,11.00
2023-04-06T11:25:54.103Z,10.90
2023-04-06T11:27:32.483Z,12.63
2023-04-06T11:29:06.417Z,11.05
2023-04-06T11:30:40.186Z,10.88
2023-04-06T11:32:21.587Z,12.82
2023-04-06T11:33:58.640Z,13.57
2023-04-06T11:35:34.621Z,10.73
2023-04-06T11:37:12.238Z,12.05
2023-04-06T11:38:45.466Z,12.40
2023-04-06T11:40:25.637Z,11.48
2023-04-06T11:42:04.477Z,11.95
2023-04-06T11:43:38.841Z,10.57
2023-04-06T11:45:17.707Z,10.48
2023-04-06T11:46:59.145Z,11.43
2023-04-06T11:48:33.229Z,10.85
2023-04-06T11:50:11.565Z,11.68
2023-04-06T11:51:44.717Z,12.10
2023-04-06T11:53:17.884Z,11.95
2023-04-06T11:54:53.486Z,10.65
2023-04-06T11:56:30.161Z,10.52
2023-04-06T11:58:04.649Z,11.40
2023-04-06T11:59:38.115Z,12.15
2023-04-06T12:01:11.322Z,14.07
2023-04-06T12:02:49.048Z,9.52
2023-04-06T12:04:23.017Z,12.27
2023-04-06T12:05:57.572Z,10.13
2023-04-06T12:07:32.435Z,10.45
2023-04-06T12:09:05.882Z,9.00
2023-04-06T12:10:39.234Z,9.80
2023-04-06T12:12:12.428Z,14.57
2023-04-06T12:13:46.888Z,10.18
2023-04-06T12:15:20.233Z,10.95
2023-04-06T12:16:53.423Z,12.20
2023-04-06T12:18:26.583Z,9.38
2023-04-06T12:20:05.253Z,10.35
2023-04-06T12:21:39.258Z,11.25
2023-04-06T12:23:12.460Z,9.85
2023-04-06T12:24:45.670Z,11.20
2023-04-06T12:26:18.799Z,9.25
2023-04-06T12:27:51.945Z,10.10
2023-04-06T12:29:26.648Z,9.75
2023-04-06T12:30:59.733Z,10.80
2023-04-06T12:32:32.948Z,11.05
2023-04-06T12:34:06.847Z,9.48
2023-04-06T12:35:40.648Z,9.27
2023-04-06T12:37:13.749Z,10.38
2023-04-06T12:38:48.536Z,11.32
2023-04-06T12:41:56.239Z,10.15
2023-04-06T12:43:29.576Z,10.48
2023-04-06T12:45:04.390Z,8.98
2023-04-06T12:48:10.727Z,10.43
2023-04-06T12:49:43.852Z,10.45
2023-04-06T12:51:18.491Z,9.95
2023-04-06T12:52:51.642Z,10.45
2023-04-06T12:54:26.402Z,8.27
2023-04-06T12:56:01.423Z,10.75
2023-04-06T12:57:34.935Z,9.45
2023-04-06T12:59:08.273Z,10.15
2023-04-06T13:00:42.920Z,10.75
2023-04-06T13:02:17.046Z,9.88
2023-04-06T13:03:51.499Z,10.27
2023-04-06T13:05:25.527Z,10.55
2023-04-06T13:06:59.619Z,10.77
2023-04-06T13:08:33.129Z,10.85
2023-04-06T13:10:07.754Z,8.70
2023-04-06T13:11:42.283Z,9.82
2023-04-06T13:13:16.122Z,10.80
2023-04-06T13:14:52.164Z,11.32
2023-04-06T13:16:26.719Z,9.52
2023-04-06T13:18:00.013Z,8.93
2023-04-06T13:19:33.559Z,11.27
2023-04-06T13:21:07.405Z,10.70
2023-04-06T13:22:40.586Z,10.40
2023-04-06T13:24:15.503Z,9.68
2023-04-06T13:25:49.546Z,8.50
2023-04-06T13:27:22.684Z,11.32
2023-04-06T13:28:57.354Z,9.70
2023-04-06T13:30:30.793Z,10.57
2023-04-06T13:32:06.024Z,8.80
2023-04-06T13:33:40.501Z,8.00
2023-04-06T13:35:13.949Z,9.15
2023-04-06T13:36:47.084Z,10.27
2023-04-06T13:38:20.408Z,8.90
2023-04-06T13:39:53.720Z,10.15
2023-04-06T13:41:27.803Z,7.60
2023-04-06T13:43:00.919Z,8.38
2023-04-06T13:44:34.249Z,9.65
2023-04-06T13:46:07.451Z,6.15
2023-04-06T13:47:42.348Z,8.93
2023-04-06T13:49:16.351Z,8.48
2023-04-06T13:50:49.540Z,6.85
2023-04-06T13:52:22.712Z,7.38
2023-04-06T13:53:56.044Z,7.97
2023-04-06T13:55:29.352Z,7.55
2023-04-06T13:57:02.542Z,7.55
2023-04-06T13:58:37.041Z,6.55
2023-04-06T14:00:13.607Z,7.90
2023-04-06T14:01:46.821Z,8.05
2023-04-06T14:03:21.842Z,9.38
2023-04-06T14:04:55.661Z,9.63
2023-04-06T14:06:31.858Z,8.70
2023-04-06T14:08:05.875Z,8.13
2023-04-06T14:09:39.086Z,9.18
2023-04-06T14:11:14.232Z,7.82
2023-04-06T14:12:47.472Z,9.63
2023-04-06T14:14:21.627Z,6.30
2023-04-06T14:15:58.496Z,6.50
2023-04-06T14:17:31.857Z,7.07
2023-04-06T14:19:06.634Z,7.95
2023-04-06T14:20:39.995Z,7.90
2023-04-06T14:22:13.185Z,6.22
2023-04-06T14:23:47.247Z,9.18
2023-04-06T14:25:21.178Z,6.95
2023-04-06T14:26:54.285Z,7.88
2023-04-06T14:28:28.132Z,7.40
2023-04-06T14:30:01.910Z,7.20
2023-04-06T14:31:36.461Z,7.18
2023-04-06T14:33:09.651Z,7.93
2023-04-06T14:34:44.420Z,7.10
2023-04-06T14:36:18.995Z,8.63
2023-04-06T14:37:52.512Z,6.88
2023-04-06T14:39:25.618Z,8.25
2023-04-06T14:40:58.760Z,6.90
2023-04-06T14:42:32.381Z,7.53
2023-04-06T14:44:06.530Z,7.55
2023-04-06T14:45:40.196Z,7.57
2023-04-06T14:47:16.474Z,8.77
2023-04-06T14:48:49.943Z,7.70
2023-04-06T14:50:24.449Z,7.78
2023-04-06T14:51:58.194Z,6.45
2023-04-06T14:53:31.821Z,6.78
2023-04-06T14:55:05.695Z,7.40
2023-04-06T14:56:39.769Z,8.52
2023-04-06T14:58:12.900Z,6.55
2023-04-06T14:59:46.087Z,8.70
2023-04-06T15:01:20.834Z,7.35
2023-04-06T15:04:27.599Z,6.93
2023-04-06T15:06:02.463Z,7.78
2023-04-06T15:07:35.795Z,8.13
2023-04-06T15:09:09.140Z,6.57
2023-04-06T15:10:42.276Z,8.65
2023-04-06T15:12:15.710Z,8.45
2023-04-06T15:13:48.811Z,8.55
2023-04-06T15:15:22.368Z,7.55
2023-04-06T15:16:55.465Z,10.65
2023-04-06T15:18:28.640Z,8.25
2023-04-06T15:20:01.769Z,7.85
2023-04-06T15:21:36.334Z,7.30
2023-04-06T15:23:09.467Z,7.88
2023-04-06T15:24:42.639Z,7.57
2023-04-06T15:26:15.736Z,7.97
2023-04-06T15:27:49.089Z,9.18
2023-04-06T15:29:22.543Z,8.90
2023-04-06T15:30:56.394Z,8.43
2023-04-06T15:32:29.632Z,6.65
2023-04-06T15:34:02.865Z,6.53
2023-04-06T15:35:41.236Z,7.50
2023-04-06T15:37:16.374Z,6.35
2023-04-06T15:38:49.998Z,6.70
2023-04-06T15:40:23.902Z,7.72
2023-04-06T15:41:57.575Z,5.57
2023-04-06T15:43:31.060Z,7.07
2023-04-06T15:45:04.381Z,5.07
2023-04-06T15:46:37.862Z,9.32
2023-04-06T15:48:11.437Z,6.40
2023-04-06T15:49:44.720Z,4.43
2023-04-06T15:51:18.110Z,5.90
2023-04-06T15:52:52.746Z,5.68
2023-04-06T15:54:25.971Z,6.75
2023-04-06T15:56:01.232Z,6.78
2023-04-06T15:57:35.050Z,5.57
2023-04-06T15:59:09.548Z,5.97
2023-04-06T16:00:42.737Z,5.25
2023-04-06T16:02:16.117Z,6.03
2023-04-06T16:03:49.468Z,6.63
2023-04-06T16:05:23.161Z,7.47
2023-04-06T16:06:56.448Z,5.57
2023-04-06T16:08:31.006Z,4.60
2023-04-06T16:10:04.865Z,6.95
2023-04-06T16:11:38.138Z,4.43
2023-04-06T16:13:11.705Z,5.22
2023-04-06T16:14:45.474Z,5.32
2023-04-06T16:16:18.702Z,5.15
2023-04-06T16:17:52.551Z,5.78
2023-04-06T16:19:25.836Z,4.38
2023-04-06T16:20:59.614Z,5.22
2023-04-06T16:22:32.860Z,4.53
2023-04-06T16:24:08.697Z,5.28
2023-04-06T16:25:42.635Z,4.70
2023-04-06T16:27:15.808Z,5.35
2023-04-06T16:28:49.220Z,5.00
2023-04-06T16:30:24.661Z,5.05
2023-04-06T16:31:57.826Z,5.25
2023-04-06T16:33:31.543Z,4.40
2023-04-06T16:35:05.770Z,4.57
2023-04-06T16:36:40.961Z,5.63
2023-04-06T16:38:15.054Z,4.20
2023-04-06T16:39:49.867Z,4.05
2023-04-06T16:41:23.538Z,5.00
2023-04-06T16:42:56.693Z,4.00
2023-04-06T16:44:30.363Z,4.22
2023-04-06T16:46:03.598Z,4.50
2023-04-06T16:47:36.964Z,5.78
2023-04-06T16:49:10.315Z,5.25
2023-04-06T16:50:43.697Z,3.90
2023-04-06T16:52:17.020Z,4.43
2023-04-06T16:53:50.224Z,4.75
2023-04-06T16:55:24.907Z,5.68
2023-04-06T16:56:58.064Z,4.05
2023-04-06T16:58:31.614Z,4.05
2023-04-06T17:00:07.257Z,5.43
2023-04-06T17:01:40.659Z,4.35
2023-04-06T17:03:13.964Z,5.45
2023-04-06T17:04:46.340Z,5.00
2023-04-06T17:06:20.627Z,4.53
2023-04-06T17:07:54.509Z,4.57
2023-04-06T17:09:27.707Z,4.80
2023-04-06T17:11:04.654Z,4.68
2023-04-06T17:12:38.156Z,5.50
2023-04-06T17:14:11.331Z,5.65
2023-04-06T17:15:44.744Z,5.00
2023-04-06T17:17:18.054Z,5.50
2023-04-06T17:18:51.172Z,8.30
2023-04-06T17:20:24.459Z,5.95
2023-04-06T17:21:57.622Z,6.03
2023-04-06T17:23:31.057Z,4.35
2023-04-06T17:25:05.430Z,4.97
2023-04-06T17:26:40.615Z,4.93
2023-04-06T17:28:13.802Z,4.85
2023-04-06T17:29:47.044Z,5.57
2023-04-06T17:31:20.538Z,4.53
2023-04-06T17:32:53.850Z,4.47
2023-04-06T17:34:30.345Z,4.00
2023-04-06T17:36:03.760Z,3.67
2023-04-06T17:37:37.804Z,4.60
2023-04-06T17:39:11.843Z,5.13
2023-04-06T17:40:45.209Z,5.10
2023-04-06T17:42:20.064Z,5.05
2023-04-06T17:45:26.824Z,3.45
2023-04-06T17:47:00.725Z,5.13
2023-04-06T17:48:34.221Z,3.17
2023-04-06T17:50:08.928Z,4.32
2023-04-06T17:51:42.768Z,4.47
2023-04-06T17:53:18.944Z,4.57
2023-04-06T17:54:52.331Z,4.05
2023-04-06T17:56:26.413Z,4.25
2023-04-06T17:58:01.270Z,4.00
2023-04-06T18:01:11.157Z,4.00
2023-04-06T18:02:45.624Z,3.55
2023-04-06T18:04:19.337Z,5.13
2023-04-06T18:05:52.926Z,3.53
2023-04-06T18:07:26.417Z,5.00
2023-04-06T18:09:00.770Z,5.57
2023-04-06T18:10:38.319Z,5.05
2023-04-06T18:12:11.622Z,5.43
2023-04-06T18:13:46.970Z,4.63
2023-04-06T18:15:20.223Z,5.22
2023-04-06T18:16:53.508Z,4.70
2023-04-06T18:18:28.097Z,6.70
2023-04-06T18:20:01.320Z,6.70
2023-04-06T18:21:34.815Z,6.45
2023-04-06T18:23:08.233Z,8.32
2023-04-06T18:24:43.320Z,6.65
2023-04-06T18:26:19.170Z,6.97
2023-04-06T18:27:52.489Z,4.97
2023-04-06T18:29:27.241Z,5.88
2023-04-06T18:31:02.423Z,5.97
2023-04-06T18:32:36.547Z,5.82
2023-04-06T18:34:09.893Z,6.45
2023-04-06T18:35:43.283Z,5.22
2023-04-06T18:37:16.769Z,4.82
2023-04-06T18:38:51.153Z,5.25
2023-04-06T18:40:36.395Z,4.18
2023-04-06T18:42:09.759Z,5.50
2023-04-06T18:43:43.416Z,6.75
2023-04-06T18:45:18.245Z,4.47
2023-04-06T18:46:54.999Z,4.90
2023-04-06T18:48:29.068Z,5.25
2023-04-06T18:50:02.334Z,5.85
2023-04-06T18:51:35.757Z,5.20
2023-04-06T18:53:09.152Z,5.60
2023-04-06T18:54:42.464Z,5.60
2023-04-06T18:56:17.440Z,5.10
2023-04-06T18:57:50.876Z,5.63
2023-04-06T18:59:24.619Z,5.70
2023-04-06T19:00:59.391Z,7.15
2023-04-06T19:02:33.695Z,5.53
2023-04-06T19:04:07.514Z,5.93
2023-04-06T19:05:42.383Z,5.07
2023-04-06T19:08:50.967Z,5.30
2023-04-06T19:10:24.478Z,5.38
2023-04-06T19:11:58.283Z,6.53
2023-04-06T19:13:30.674Z,6.35
2023-04-06T19:15:06.287Z,5.78
2023-04-06T19:16:51.717Z,5.95
2023-04-06T19:18:25.552Z,5.50
2023-04-06T19:20:00.930Z,6.63
2023-04-06T19:21:34.151Z,5.55
2023-04-06T19:23:08.565Z,5.57
2023-04-06T19:24:42.819Z,5.07
2023-04-06T19:26:17.914Z,5.75
2023-04-06T19:27:51.309Z,5.63
2023-04-06T19:29:24.824Z,4.72
2023-04-06T19:30:58.174Z,6.15
2023-04-06T19:32:33.335Z,4.97
2023-04-06T19:34:08.218Z,5.25
2023-04-06T19:37:15.929Z,5.88
2023-04-06T19:38:49.240Z,4.22
2023-04-06T19:40:23.043Z,5.22
2023-04-06T19:41:56.933Z,5.63
2023-04-06T19:43:30.312Z,5.85
2023-04-06T19:45:03.801Z,4.85
2023-04-06T19:46:37.164Z,6.40
2023-04-06T19:48:11.882Z,4.28
2023-04-06T19:49:45.326Z,5.03
2023-04-06T19:51:18.802Z,4.55
2023-04-06T19:52:53.176Z,4.32
2023-04-06T19:54:26.735Z,5.75
2023-04-06T19:56:00.386Z,5.38
2023-04-06T19:57:33.842Z,4.47
2023-04-06T19:59:07.496Z,5.57
2023-04-06T20:00:40.778Z,4.90
2023-04-06T20:02:14.041Z,5.63
2023-04-06T20:03:48.876Z,4.63
2023-04-06T20:05:22.564Z,5.32
2023-04-06T20:06:55.923Z,4.45
2023-04-06T20:08:29.799Z,5.50
2023-04-06T20:10:04.107Z,6.30
2023-04-06T20:11:37.431Z,4.25
2023-04-06T20:13:10.704Z,14.80
2023-04-06T20:14:43.987Z,5.70
2023-04-06T20:16:17.376Z,5.68
2023-04-06T20:17:50.762Z,5.82
2023-04-06T20:19:25.984Z,4.20
2023-04-06T20:20:59.360Z,4.85
2023-04-06T20:22:33.127Z,4.28
2023-04-06T20:24:06.745Z,4.50
2023-04-06T20:25:40.074Z,5.75
2023-04-06T20:27:12.528Z,7.32
2023-04-06T20:28:45.730Z,4.53
2023-04-06T20:30:18.984Z,5.00
2023-04-06T20:31:52.440Z,4.80
2023-04-06T20:33:25.765Z,4.10
2023-04-06T20:35:00.585Z,4.25
2023-04-06T20:36:35.620Z,4.35
2023-04-06T20:38:08.868Z,4.45
2023-04-06T20:39:42.046Z,4.97
2023-04-06T20:41:16.319Z,4.43
2023-04-06T20:42:49.608Z,4.15
2023-04-06T20:44:24.841Z,11.82
2023-04-06T20:45:58.725Z,5.38
2023-04-06T20:47:32.245Z,3.63
2023-04-06T20:49:05.908Z,4.55
2023-04-06T20:50:40.824Z,3.42
2023-04-06T20:53:48.417Z,4.35
2023-04-06T20:55:21.553Z,3.17
2023-04-06T20:56:56.008Z,5.22
2023-04-06T20:58:29.362Z,4.28
2023-04-06T21:00:02.689Z,4.55
2023-04-06T21:01:36.349Z,3.75
2023-04-06T21:03:09.831Z,3.47
2023-04-06T21:04:44.570Z,3.75
2023-04-06T21:06:19.431Z,3.03
2023-04-06T21:07:52.584Z,5.45
2023-04-06T21:09:27.857Z,3.15
2023-04-06T21:11:01.222Z,4.10
2023-04-06T21:12:34.622Z,3.22
2023-04-06T21:14:08.196Z,14.73
2023-04-06T21:15:42.154Z,4.50
2023-04-06T21:17:15.641Z,4.25
2023-04-06T21:18:48.831Z,4.35